Time;durP1;ratioP1;P1;durP2;ratioP2;P2;SDS_P1;SDS_P2;PMS_P1;PMS_P2;Temp;Humidity;BMP_temperature;BMP_pressure;BME280_temperature;BME280_humidity;BME280_pressure;Samples;Min_cycle;Max_cycle;Signal;HPM_P1;HPM_P2
2023/10/03 00:00:31;;;;;;;20.90;11.32;;;17.10;99.90;;;;;;5076690;28;20484;-81
2023/10/03 00:02:58;;;;;;;22.48;11.88;;;17.10;99.90;;;;;;5075964;28;20060;-82
2023/10/03 00:05:31;;;;;;;20.50;11.50;;;17.20;99.90;;;;;;5075306;28;20374;-82
2023/10/03 00:07:58;;;;;;;19.85;10.93;;;17.20;99.90;;;;;;5075665;28;20056;-79
2023/10/03 00:10:25;;;;;;;20.30;11.45;;;17.20;99.90;;;;;;5075573;28;20041;-80
2023/10/03 00:12:52;;;;;;;18.58;10.77;;;17.30;99.90;;;;;;5074907;28;20235;-82
2023/10/03 00:15:25;;;;;;;19.52;10.80;;;17.30;99.90;;;;;;5075585;28;20130;-81
2023/10/03 00:17:52;;;;;;;19.13;10.73;;;17.30;99.90;;;;;;5075428;28;20087;-82
2023/10/03 00:20:18;;;;;;;20.85;10.55;;;17.30;99.90;;;;;;5074459;28;20049;-81
2023/10/03 00:22:48;;;;;;;18.17;9.85;;;17.40;99.90;;;;;;5074241;28;20389;-81
2023/10/03 00:25:18;;;;;;;22.38;10.45;;;17.30;99.90;;;;;;5075386;28;20041;-81
2023/10/03 00:27:46;;;;;;;19.48;9.70;;;17.30;99.90;;;;;;5075318;28;20041;-81
2023/10/03 00:30:12;;;;;;;20.52;10.18;;;17.40;99.90;;;;;;5057558;28;20048;-85
2023/10/03 00:32:40;;;;;;;19.52;10.82;;;17.40;99.90;;;;;;5075108;28;20552;-81
2023/10/03 00:35:07;;;;;;;17.92;9.60;;;17.40;99.90;;;;;;5075430;28;20127;-81
2023/10/03 00:37:33;;;;;;;17.30;10.32;;;17.40;99.90;;;;;;5074100;28;20040;-80
2023/10/03 00:40:00;;;;;;;19.98;11.07;;;17.40;99.90;;;;;;5075099;28;20386;-85
2023/10/03 00:42:26;;;;;;;18.58;10.50;;;17.40;99.90;;;;;;5074990;28;20059;-82
2023/10/03 00:44:52;;;;;;;21.25;10.63;;;17.40;99.90;;;;;;5075553;28;20378;-81
2023/10/03 00:47:18;;;;;;;18.05;9.80;;;17.40;99.90;;;;;;5075108;28;20489;-85
2023/10/03 00:49:46;;;;;;;20.15;10.40;;;17.40;99.90;;;;;;5075494;28;20048;-82
2023/10/03 00:52:12;;;;;;;16.80;9.82;;;17.40;99.90;;;;;;5075339;28;20048;-85
2023/10/03 00:54:40;;;;;;;19.15;10.45;;;17.40;99.90;;;;;;5075082;28;20055;-80
2023/10/03 00:57:08;;;;;;;19.70;10.32;;;17.40;99.90;;;;;;5074559;28;20044;-81
2023/10/03 00:59:34;;;;;;;20.27;9.43;;;17.40;99.90;;;;;;5075045;28;20367;-79
2023/10/03 01:02:06;;;;;;;19.02;10.32;;;17.30;99.90;;;;;;5073409;28;20051;-80
2023/10/03 01:04:34;;;;;;;20.05;10.27;;;17.30;99.90;;;;;;5075338;28;20459;-79
2023/10/03 01:07:00;;;;;;;19.27;10.23;;;17.40;99.90;;;;;;5074507;28;20045;-84
2023/10/03 01:09:28;;;;;;;19.58;9.95;;;17.30;99.90;;;;;;5074500;28;20106;-79
2023/10/03 01:11:56;;;;;;;20.10;10.15;;;17.30;99.90;;;;;;5074464;28;20132;-79
2023/10/03 01:14:22;;;;;;;17.95;9.35;;;17.40;99.90;;;;;;5074414;28;20064;-81
2023/10/03 01:16:49;;;;;;;19.75;10.30;;;17.30;99.90;;;;;;5074567;28;20088;-80
2023/10/03 01:19:25;;;;;;;20.23;9.48;;;17.30;99.90;;;;;;5074357;28;20052;-80
2023/10/03 01:21:51;;;;;;;19.77;9.27;;;17.30;99.90;;;;;;5074865;28;20048;-80
2023/10/03 01:24:20;;;;;;;20.33;10.00;;;17.30;99.90;;;;;;5073258;28;20058;-80
2023/10/03 01:26:52;;;;;;;19.30;10.32;;;17.30;99.90;;;;;;5074751;28;20080;-82
2023/10/03 01:29:19;;;;;;;20.15;9.90;;;17.30;99.90;;;;;;5074167;28;20131;-81
2023/10/03 01:31:47;;;;;;;19.05;10.05;;;17.30;99.90;;;;;;5074070;28;20055;-82
2023/10/03 01:34:15;;;;;;;18.70;9.98;;;17.40;99.90;;;;;;5073983;28;20055;-82
2023/10/03 01:36:47;;;;;;;18.15;10.05;;;17.40;99.90;;;;;;5073849;28;20170;-80
2023/10/03 01:39:16;;;;;;;17.50;9.15;;;17.30;99.90;;;;;;5073933;28;20051;-81
2023/10/03 01:41:42;;;;;;;20.67;10.68;;;17.30;99.90;;;;;;5072295;28;20099;-83
2023/10/03 01:44:08;;;;;;;18.75;9.73;;;17.30;99.90;;;;;;5072734;28;20078;-83
2023/10/03 01:46:34;;;;;;;18.02;9.82;;;17.30;99.90;;;;;;5074410;28;20079;-84
2023/10/03 01:49:00;;;;;;;18.20;9.07;;;17.30;99.90;;;;;;5073948;28;20100;-83
2023/10/03 01:51:26;;;;;;;19.60;10.07;;;17.40;99.90;;;;;;5074384;28;20094;-82
2023/10/03 01:53:55;;;;;;;15.80;9.52;;;17.40;99.90;;;;;;5073779;28;20055;-80
2023/10/03 01:56:21;;;;;;;17.98;9.65;;;17.30;99.90;;;;;;5074566;28;20052;-80
2023/10/03 01:58:47;;;;;;;20.33;8.93;;;17.30;99.90;;;;;;5073711;28;20429;-80
2023/10/03 02:01:13;;;;;;;19.30;10.07;;;17.30;99.90;;;;;;5073996;28;20071;-81
2023/10/03 02:03:39;;;;;;;18.77;9.55;;;17.30;99.90;;;;;;5073551;28;20041;-80
2023/10/03 02:06:07;;;;;;;18.45;9.27;;;17.30;99.90;;;;;;5073882;28;20071;-80
2023/10/03 02:08:33;;;;;;;18.65;9.30;;;17.20;99.90;;;;;;5073584;28;20040;-80
2023/10/03 02:10:59;;;;;;;17.83;10.13;;;17.30;99.90;;;;;;5073554;28;20047;-83
2023/10/03 02:13:25;;;;;;;17.23;9.68;;;17.30;99.90;;;;;;5073590;28;20045;-80
2023/10/03 02:15:53;;;;;;;16.35;8.95;;;17.20;99.90;;;;;;5073982;28;20144;-80
2023/10/03 02:18:19;;;;;;;18.52;9.20;;;17.20;99.90;;;;;;5073790;28;20402;-82
2023/10/03 02:20:52;;;;;;;17.52;9.13;;;17.20;99.90;;;;;;5073549;28;20089;-83
2023/10/03 02:23:23;;;;;;;19.98;9.48;;;17.20;99.90;;;;;;5073560;28;20050;-81
2023/10/03 02:25:52;;;;;;;20.90;10.32;;;17.20;99.90;;;;;;5072867;28;20052;-82
2023/10/03 02:28:18;;;;;;;17.08;8.88;;;17.20;99.90;;;;;;5073475;28;20060;-84
2023/10/03 02:30:49;;;;;;;15.55;8.63;;;17.20;99.90;;;;;;5073379;28;20048;-81
2023/10/03 02:33:16;;;;;;;18.05;9.68;;;17.20;99.90;;;;;;5073280;28;20405;-81
2023/10/03 02:35:46;;;;;;;18.17;9.57;;;17.10;99.90;;;;;;5073281;28;20044;-82
2023/10/03 02:38:27;;;;;;;20.58;9.20;;;17.20;99.90;;;;;;5072897;28;20075;-82
2023/10/03 02:40:59;;;;;;;21.33;10.05;;;17.10;99.90;;;;;;5073322;28;20056;-82
2023/10/03 02:43:30;;;;;;;18.73;9.48;;;17.10;99.90;;;;;;5074109;28;20080;-82
2023/10/03 02:45:56;;;;;;;16.13;8.88;;;17.10;99.90;;;;;;5072363;28;20056;-83
2023/10/03 02:48:22;;;;;;;19.70;9.32;;;17.10;99.90;;;;;;5073287;28;20044;-82
2023/10/03 02:50:50;;;;;;;17.02;8.60;;;17.10;99.90;;;;;;5073206;28;20045;-82
2023/10/03 02:53:20;;;;;;;20.77;10.02;;;17.10;99.90;;;;;;5073157;28;20052;-83
2023/10/03 02:55:47;;;;;;;20.08;10.10;;;17.10;99.90;;;;;;5073430;28;20047;-82
2023/10/03 02:58:13;;;;;;;18.23;9.80;;;17.10;99.90;;;;;;5073053;28;20162;-83
2023/10/03 03:00:40;;;;;;;17.98;9.85;;;17.10;99.90;;;;;;5075347;28;20060;-83
2023/10/03 03:03:06;;;;;;;18.58;9.55;;;17.10;99.90;;;;;;5078217;28;20481;-83
2023/10/03 03:05:36;;;;;;;19.50;10.15;;;17.10;99.90;;;;;;5079300;28;20052;-81
2023/10/03 03:10:56;;;;;;;19.10;9.25;;;17.10;99.90;;;;;;5076795;28;20053;-83
2023/10/03 03:13:31;;;;;;;19.83;9.30;;;17.10;99.90;;;;;;5076776;28;20049;-82
2023/10/03 03:16:03;;;;;;;15.55;8.65;;;17.10;99.90;;;;;;5076228;28;20486;-83
2023/10/03 03:18:41;;;;;;;17.80;8.60;;;17.10;99.90;;;;;;5076673;28;20044;-82
2023/10/03 03:21:08;;;;;;;19.83;9.65;;;17.10;99.90;;;;;;5076859;28;20125;-82
2023/10/03 03:23:42;;;;;;;16.52;8.85;;;17.20;99.90;;;;;;5076560;28;20106;-85
2023/10/03 03:26:17;;;;;;;19.48;9.57;;;17.20;99.90;;;;;;5076508;28;20053;-82
2023/10/03 03:28:45;;;;;;;19.37;9.80;;;17.20;99.90;;;;;;5077185;28;20044;-80
2023/10/03 03:31:46;;;;;;;18.15;9.18;;;17.20;99.90;;;;;;5076151;28;20318;-80
2023/10/03 03:34:04;;;;;;;15.95;9.00;;;17.40;99.90;;;;;;5075198;28;20074;-84
2023/10/03 03:36:30;;;;;;;18.75;9.70;;;17.40;99.90;;;;;;5076232;28;20477;-85
2023/10/03 03:38:58;;;;;;;19.83;8.68;;;17.40;99.90;;;;;;5076276;28;20508;-82
2023/10/03 03:41:24;;;;;;;20.05;9.07;;;17.50;99.90;;;;;;5076329;28;20509;-85
2023/10/03 03:43:50;;;;;;;19.02;10.15;;;17.60;99.90;;;;;;5076201;28;20040;-83
2023/10/03 03:46:18;;;;;;;18.00;9.23;;;17.70;99.90;;;;;;5075139;28;20044;-84
2023/10/03 03:48:44;;;;;;;21.33;10.45;;;17.80;99.90;;;;;;5076067;28;20052;-82
2023/10/03 03:51:11;;;;;;;16.35;8.63;;;17.90;99.90;;;;;;5075099;28;20439;-81
2023/10/03 03:53:38;;;;;;;19.88;9.57;;;18.00;99.90;;;;;;5075988;28;20450;-84
2023/10/03 03:56:07;;;;;;;16.92;8.75;;;18.00;99.90;;;;;;5075843;28;20041;-84
2023/10/03 03:58:48;;;;;;;16.35;8.70;;;18.10;99.90;;;;;;5075882;28;20044;-82
2023/10/03 04:01:15;;;;;;;18.85;9.27;;;18.10;99.90;;;;;;5076168;28;20362;-81
2023/10/03 04:03:42;;;;;;;15.00;8.20;;;18.10;99.90;;;;;;5075519;28;20494;-82
2023/10/03 04:06:09;;;;;;;19.25;9.88;;;18.20;99.90;;;;;;5074458;28;20052;-81
2023/10/03 04:08:35;;;;;;;17.95;8.68;;;18.20;99.90;;;;;;5074497;28;20040;-81
2023/10/03 04:11:02;;;;;;;17.48;9.00;;;18.20;99.90;;;;;;5075632;28;20056;-83
2023/10/03 04:13:30;;;;;;;16.83;8.77;;;18.20;99.90;;;;;;5075696;28;20455;-83
2023/10/03 04:16:01;;;;;;;19.35;9.48;;;18.20;99.90;;;;;;5075549;28;20044;-82
2023/10/03 04:18:27;;;;;;;17.45;9.02;;;18.20;99.90;;;;;;5075125;28;20063;-82
2023/10/03 04:20:53;;;;;;;18.10;8.95;;;18.20;99.90;;;;;;5076105;28;20465;-81
2023/10/03 04:23:19;;;;;;;15.68;8.63;;;18.20;99.90;;;;;;5075426;28;20145;-84
2023/10/03 04:25:45;;;;;;;16.90;8.80;;;18.30;99.90;;;;;;5075957;28;20128;-81
2023/10/03 04:28:11;;;;;;;15.80;8.40;;;18.30;99.90;;;;;;5075690;28;20056;-82
2023/10/03 04:30:39;;;;;;;17.83;9.13;;;18.30;99.90;;;;;;5075286;28;20131;-82
2023/10/03 04:33:05;;;;;;;19.17;9.25;;;18.30;99.90;;;;;;5075877;28;20128;-85
2023/10/03 04:35:30;;;;;;;17.65;9.02;;;18.30;99.90;;;;;;5074806;28;20489;-83
2023/10/03 04:37:57;;;;;;;15.65;8.68;;;18.30;99.90;;;;;;5075013;28;20048;-80
2023/10/03 04:40:31;;;;;;;17.67;8.80;;;18.30;99.90;;;;;;5074887;28;20131;-83
2023/10/03 04:43:06;;;;;;;16.55;8.73;;;18.20;99.90;;;;;;5073909;28;20131;-81
2023/10/03 04:45:32;;;;;;;17.88;9.43;;;18.20;99.90;;;;;;5075496;28;20054;-83
2023/10/03 04:47:58;;;;;;;21.25;9.52;;;18.20;99.90;;;;;;5073763;28;20048;-83
2023/10/03 04:50:26;;;;;;;17.65;8.68;;;18.20;99.90;;;;;;5075458;28;20466;-80
2023/10/03 04:52:53;;;;;;;17.60;8.55;;;18.20;99.90;;;;;;5075415;28;20044;-79
2023/10/03 04:55:21;;;;;;;17.90;8.82;;;18.20;99.90;;;;;;5074819;28;20048;-80
2023/10/03 04:57:49;;;;;;;16.00;9.18;;;18.30;99.90;;;;;;5074860;28;20037;-81
2023/10/03 05:00:16;;;;;;;14.82;8.70;;;18.20;99.90;;;;;;5075204;28;20094;-81
2023/10/03 05:02:47;;;;;;;16.33;8.07;;;18.20;99.90;;;;;;5074550;28;20056;-80
2023/10/03 05:05:20;;;;;;;16.60;8.20;;;18.20;99.90;;;;;;5075437;28;20055;-82
2023/10/03 05:07:53;;;;;;;15.27;8.70;;;18.20;99.90;;;;;;5074928;28;20059;-82
2023/10/03 05:10:33;;;;;;;15.95;7.80;;;18.30;99.90;;;;;;5074834;28;20045;-82
2023/10/03 05:12:59;;;;;;;19.75;8.88;;;18.40;99.90;;;;;;5074572;28;20052;-82
2023/10/03 05:15:28;;;;;;;15.07;8.68;;;18.40;99.90;;;;;;5074452;28;20052;-84
2023/10/03 05:17:54;;;;;;;16.90;8.63;;;18.50;99.90;;;;;;5073043;28;20041;-80
2023/10/03 05:20:20;;;;;;;14.43;8.48;;;18.50;99.90;;;;;;5074302;28;20055;-83
2023/10/03 05:22:47;;;;;;;15.55;8.57;;;18.60;99.90;;;;;;5074045;28;20049;-83
2023/10/03 05:25:17;;;;;;;16.77;8.68;;;18.70;99.90;;;;;;5073105;28;20045;-80
2023/10/03 05:27:43;;;;;;;15.98;8.65;;;18.80;99.90;;;;;;5074966;28;20131;-83
2023/10/03 05:30:10;;;;;;;16.23;8.10;;;18.70;99.90;;;;;;5073145;28;20063;-82
2023/10/03 05:32:37;;;;;;;14.52;7.53;;;18.70;99.90;;;;;;5074207;28;20078;-83
2023/10/03 05:35:07;;;;;;;18.33;8.38;;;18.70;99.90;;;;;;5072767;28;20048;-80
2023/10/03 05:37:34;;;;;;;16.42;8.10;;;18.80;99.90;;;;;;5074039;28;20400;-80
2023/10/03 05:40:15;;;;;;;15.93;7.65;;;18.90;99.90;;;;;;5073811;28;20131;-77
2023/10/03 05:42:45;;;;;;;12.93;7.15;;;18.90;99.90;;;;;;5074841;28;20059;-82
2023/10/03 05:45:16;;;;;;;12.70;7.72;;;18.90;99.90;;;;;;5073795;28;20066;-83
2023/10/03 05:47:48;;;;;;;12.57;6.57;;;18.90;99.90;;;;;;5072264;28;20135;-84
2023/10/03 05:50:23;;;;;;;11.35;6.65;;;18.90;99.90;;;;;;5073773;28;20439;-81
2023/10/03 05:52:50;;;;;;;15.32;7.68;;;18.90;99.90;;;;;;5073859;28;20123;-81
2023/10/03 05:55:16;;;;;;;11.60;6.45;;;18.90;99.90;;;;;;5072952;28;20041;-81
2023/10/03 05:57:42;;;;;;;11.95;6.95;;;19.00;99.90;;;;;;5073559;28;20082;-81
2023/10/03 06:00:18;;;;;;;13.30;7.10;;;19.00;99.90;;;;;;5073956;28;20210;-80
2023/10/03 06:02:47;;;;;;;14.05;6.18;;;19.00;99.90;;;;;;5073704;28;20145;-81
2023/10/03 06:05:13;;;;;;;14.88;6.47;;;19.00;99.90;;;;;;5073564;28;20040;-83
2023/10/03 06:07:41;;;;;;;13.77;6.90;;;19.00;99.90;;;;;;5073498;28;20417;-80
2023/10/03 06:10:10;;;;;;;11.68;6.05;;;19.00;99.90;;;;;;5074077;28;20052;-81
2023/10/03 06:12:36;;;;;;;12.10;6.78;;;19.00;99.90;;;;;;5073563;28;20481;-83
2023/10/03 06:15:04;;;;;;;11.20;6.20;;;19.10;99.90;;;;;;5074048;28;20358;-66
2023/10/03 06:17:31;;;;;;;13.43;5.35;;;19.00;99.90;;;;;;5073412;28;20093;-66
2023/10/03 06:19:57;;;;;;;9.32;5.00;;;19.10;99.90;;;;;;5073411;28;20050;-66
2023/10/03 06:22:23;;;;;;;10.30;5.50;;;19.00;99.90;;;;;;5073062;28;20044;-66
2023/10/03 06:24:50;;;;;;;11.07;6.00;;;19.00;99.90;;;;;;5073424;28;20052;-66
2023/10/03 06:27:17;;;;;;;7.72;4.00;;;19.10;99.90;;;;;;5073455;28;20115;-66
2023/10/03 06:29:43;;;;;;;10.15;4.63;;;19.10;99.90;;;;;;5073445;28;20059;-66
2023/10/03 06:32:09;;;;;;;8.63;4.15;;;19.10;99.90;;;;;;5073484;28;20084;-66
2023/10/03 06:34:35;;;;;;;7.78;4.25;;;19.10;99.90;;;;;;5074489;28;20044;-66
2023/10/03 06:37:01;;;;;;;6.90;3.65;;;19.10;99.90;;;;;;5077053;28;20420;-66
2023/10/03 06:39:26;;;;;;;8.35;3.53;;;19.10;99.90;;;;;;5076295;28;20497;-66
2023/10/03 06:41:55;;;;;;;7.60;3.95;;;19.00;99.90;;;;;;5076784;28;20135;-66
2023/10/03 06:44:21;;;;;;;9.45;3.85;;;19.00;99.90;;;;;;5076965;28;20517;-67
2023/10/03 06:46:47;;;;;;;6.13;3.60;;;19.00;99.90;;;;;;5078020;28;20063;-66
2023/10/03 06:49:17;;;;;;;7.45;3.30;;;19.00;99.90;;;;;;5077552;28;20048;-66
2023/10/03 06:51:43;;;;;;;5.95;3.22;;;18.90;99.90;;;;;;5077079;28;20057;-66
2023/10/03 06:54:09;;;;;;;7.95;3.75;;;18.90;99.90;;;;;;5077148;28;20053;-66
2023/10/03 06:56:34;;;;;;;8.48;3.95;;;18.90;99.90;;;;;;5077005;28;20051;-66
2023/10/03 06:59:00;;;;;;;8.68;3.53;;;18.80;99.90;;;;;;5076711;28;20105;-66
2023/10/03 07:01:27;;;;;;;6.75;3.83;;;18.70;99.90;;;;;;5077793;28;20049;-66
2023/10/03 07:03:54;;;;;;;6.90;3.53;;;18.70;99.90;;;;;;5077228;28;20421;-66
2023/10/03 07:06:20;;;;;;;7.80;3.90;;;18.70;99.90;;;;;;5076807;28;20050;-66
2023/10/03 07:08:46;;;;;;;8.73;3.60;;;18.70;99.90;;;;;;5076865;28;20095;-66
2023/10/03 07:11:16;;;;;;;9.38;3.17;;;18.70;99.90;;;;;;5077281;28;20076;-66
2023/10/03 07:13:43;;;;;;;7.97;2.85;;;18.70;99.90;;;;;;5076403;28;20119;-66
2023/10/03 07:16:09;;;;;;;6.13;2.95;;;18.70;99.90;;;;;;5075878;28;20123;-66
2023/10/03 07:18:38;;;;;;;5.47;2.38;;;18.70;99.90;;;;;;5076063;28;20489;-66
2023/10/03 07:21:04;;;;;;;8.43;2.83;;;18.70;99.90;;;;;;5076235;28;20443;-66
2023/10/03 07:23:30;;;;;;;8.25;2.75;;;18.70;99.90;;;;;;5076280;28;20045;-66
2023/10/03 07:25:56;;;;;;;6.18;3.33;;;18.70;99.90;;;;;;5074947;28;20055;-67
2023/10/03 07:28:22;;;;;;;5.00;2.83;;;18.80;99.90;;;;;;5076893;28;20048;-66
2023/10/03 07:30:48;;;;;;;6.82;2.83;;;18.80;99.90;;;;;;5076113;28;20048;-67
2023/10/03 07:33:14;;;;;;;5.55;3.08;;;18.80;99.90;;;;;;5075405;28;20362;-66
2023/10/03 07:35:41;;;;;;;6.50;2.50;;;18.80;99.90;;;;;;5075934;28;20066;-67
2023/10/03 07:38:10;;;;;;;6.07;2.65;;;18.80;99.90;;;;;;5075873;28;20106;-67
2023/10/03 07:40:38;;;;;;;7.88;2.38;;;18.80;99.90;;;;;;5075419;28;20060;-66
2023/10/03 07:43:12;;;;;;;6.90;3.17;;;18.80;99.90;;;;;;5074653;28;20049;-66
2023/10/03 07:45:38;;;;;;;6.38;2.80;;;18.80;99.90;;;;;;5073029;28;20533;-66
2023/10/03 07:48:09;;;;;;;6.93;2.55;;;18.80;99.90;;;;;;5074696;28;20132;-67
2023/10/03 07:50:37;;;;;;;5.43;3.05;;;18.70;99.90;;;;;;5073601;28;20052;-67
2023/10/03 07:53:11;;;;;;;6.18;3.58;;;18.60;99.90;;;;;;5074494;28;20059;-64
2023/10/03 07:55:39;;;;;;;10.35;2.92;;;18.50;99.90;;;;;;5074814;28;20123;-66
2023/10/03 07:58:05;;;;;;;7.85;3.35;;;18.30;99.90;;;;;;5075491;28;20121;-66
2023/10/03 08:00:31;;;;;;;5.60;2.80;;;18.00;99.90;;;;;;5073266;28;20210;-66
2023/10/03 08:02:57;;;;;;;8.02;3.03;;;18.00;99.90;;;;;;5075158;28;20083;-66
2023/10/03 08:05:27;;;;;;;7.97;2.97;;;17.90;99.90;;;;;;5074247;28;20049;-66
2023/10/03 08:07:55;;;;;;;6.60;3.55;;;17.90;99.90;;;;;;5073290;28;20080;-66
2023/10/03 08:10:21;;;;;;;7.63;3.30;;;18.00;99.90;;;;;;5074272;28;20060;-67
2023/10/03 08:12:50;;;;;;;8.07;3.25;;;18.00;99.90;;;;;;5073511;28;20044;-67
2023/10/03 08:15:18;;;;;;;8.00;3.50;;;18.00;99.90;;;;;;5074131;28;20131;-66
2023/10/03 08:17:48;;;;;;;6.30;3.33;;;18.10;99.90;;;;;;5074005;28;20041;-65
2023/10/03 08:20:15;;;;;;;5.97;3.20;;;18.10;99.90;;;;;;5074149;28;20464;-65
2023/10/03 08:22:42;;;;;;;7.13;3.33;;;18.10;99.90;;;;;;5074110;28;20044;-65
2023/10/03 08:25:09;;;;;;;6.30;3.88;;;18.10;99.90;;;;;;5073980;28;20051;-67
2023/10/03 08:27:35;;;;;;;6.18;3.17;;;18.20;99.90;;;;;;5074259;28;20502;-67
2023/10/03 08:30:03;;;;;;;5.28;3.30;;;18.10;99.90;;;;;;5073603;28;20088;-66
2023/10/03 08:32:31;;;;;;;6.65;2.95;;;18.10;99.90;;;;;;5073978;28;20048;-66
2023/10/03 08:34:57;;;;;;;6.20;3.45;;;17.90;99.90;;;;;;5073562;28;20547;-66
2023/10/03 08:37:22;;;;;;;6.85;3.15;;;17.70;99.90;;;;;;5074514;28;20067;-66
2023/10/03 08:39:49;;;;;;;7.00;3.17;;;17.50;99.90;;;;;;5074448;28;20040;-66
2023/10/03 08:42:34;;;;;;;5.78;2.72;;;17.40;99.90;;;;;;5035338;28;1137446;-66
2023/10/03 08:45:22;;;;;;;8.50;2.78;;;17.40;99.90;;;;;;5075574;28;20114;-67
2023/10/03 08:47:53;;;;;;;8.60;3.08;;;17.30;99.90;;;;;;5074936;28;20041;-67
2023/10/03 08:50:36;;;;;;;5.88;2.90;;;17.20;99.90;;;;;;5073345;28;20072;-66
2023/10/03 08:55:48;;;;;;;5.38;3.00;;;17.20;99.90;;;;;;5075081;28;20052;-66
2023/10/03 08:58:18;;;;;;;5.60;2.88;;;17.10;99.90;;;;;;5073027;28;20051;-66
2023/10/03 09:00:49;;;;;;;5.32;2.28;;;17.10;99.90;;;;;;5074477;28;20084;-66
2023/10/03 09:03:16;;;;;;;4.60;2.13;;;17.10;99.90;;;;;;5074438;28;20532;-66
2023/10/03 09:05:43;;;;;;;5.28;2.00;;;17.10;99.90;;;;;;5073938;28;20406;-66
2023/10/03 09:08:10;;;;;;;5.18;1.83;;;17.10;99.90;;;;;;5074281;28;20032;-65
2023/10/03 09:11:13;;;;;;;4.20;1.80;;;17.10;99.90;;;;;;5074137;28;20084;-66
2023/10/03 09:13:30;;;;;;;5.28;1.60;;;17.10;99.90;;;;;;5073995;28;20393;-65
2023/10/03 09:16:00;;;;;;;3.08;1.27;;;17.10;99.90;;;;;;5074094;28;20048;-66
2023/10/03 09:18:31;;;;;;;7.43;1.88;;;17.10;99.90;;;;;;5073689;28;20474;-66
2023/10/03 09:21:00;;;;;;;2.58;1.33;;;17.10;99.90;;;;;;5074002;28;20044;-66
2023/10/03 09:23:37;;;;;;;4.55;1.48;;;17.00;99.90;;;;;;5074018;28;20090;-66
2023/10/03 09:26:06;;;;;;;4.05;1.23;;;17.00;99.90;;;;;;5073868;28;20071;-65
2023/10/03 09:28:35;;;;;;;5.10;1.35;;;16.90;99.90;;;;;;5073886;28;20052;-65
2023/10/03 09:31:10;;;;;;;4.47;1.65;;;16.90;99.90;;;;;;5074268;28;20401;-65
2023/10/03 09:33:40;;;;;;;3.55;1.15;;;16.90;99.90;;;;;;5073915;28;20049;-66
2023/10/03 09:36:06;;;;;;;2.58;0.85;;;16.90;99.90;;;;;;5073215;28;20513;-67
2023/10/03 09:38:46;;;;;;;3.40;0.93;;;16.90;99.90;;;;;;5072613;28;20037;-66
2023/10/03 09:41:17;;;;;;;5.30;1.20;;;16.90;99.90;;;;;;5073700;28;20477;-65
2023/10/03 09:43:56;;;;;;;2.72;0.95;;;16.80;99.90;;;;;;5074194;28;20452;-66
2023/10/03 09:46:23;;;;;;;3.33;1.00;;;16.90;99.90;;;;;;5073339;28;20405;-66
2023/10/03 09:48:56;;;;;;;5.10;1.35;;;16.90;99.90;;;;;;5073885;28;20123;-65
2023/10/03 09:51:45;;;;;;;1.95;0.77;;;17.00;99.90;;;;;;5073603;28;20045;-65
2023/10/03 09:54:15;;;;;;;1.85;0.50;;;17.00;99.90;;;;;;5073592;28;20066;-66
2023/10/03 09:56:44;;;;;;;2.00;0.60;;;16.60;99.90;;;;;;5073389;28;20044;-66
2023/10/03 09:59:17;;;;;;;2.38;0.55;;;16.10;99.90;;;;;;5072368;28;20087;-66
2023/10/03 10:01:45;;;;;;;3.25;0.60;;;15.70;99.90;;;;;;5074032;28;20132;-67
2023/10/03 10:04:15;;;;;;;1.63;0.47;;;15.60;99.90;;;;;;5073433;28;20093;-66
2023/10/03 10:06:47;;;;;;;2.05;0.50;;;15.60;99.90;;;;;;5073388;28;20127;-66
2023/10/03 10:09:34;;;;;;;1.60;0.50;;;15.50;99.90;;;;;;5073365;28;20044;-67
2023/10/03 10:12:20;;;;;;;1.48;0.52;;;15.60;99.90;;;;;;5073389;28;20516;-66
2023/10/03 10:15:00;;;;;;;1.65;0.50;;;15.60;99.90;;;;;;5073348;28;20056;-66
2023/10/03 10:17:55;;;;;;;0.50;0.30;;;15.60;99.90;;;;;;5073752;28;20056;-66
2023/10/03 10:20:37;;;;;;;2.15;0.45;;;15.50;99.90;;;;;;5071177;28;20064;-66
2023/10/03 10:23:04;;;;;;;0.73;0.45;;;15.50;99.90;;;;;;5072610;28;20560;-66
2023/10/03 10:25:37;;;;;;;1.00;0.40;;;15.40;99.90;;;;;;5073228;28;20060;-67
2023/10/03 10:28:05;;;;;;;2.10;0.47;;;15.40;99.90;;;;;;5073149;28;20044;-66
2023/10/03 10:30:35;;;;;;;1.40;0.57;;;15.50;99.90;;;;;;5073223;28;20052;-66
2023/10/03 10:33:16;;;;;;;1.58;0.50;;;15.50;99.90;;;;;;5073237;28;20052;-66
2023/10/03 10:36:09;;;;;;;1.77;0.50;;;15.50;99.90;;;;;;5073303;28;20485;-66
2023/10/03 10:38:34;;;;;;;1.70;0.40;;;15.60;99.90;;;;;;5072944;28;20516;-66
2023/10/03 10:41:17;;;;;;;1.92;0.57;;;15.60;99.90;;;;;;5073117;28;20060;-66
2023/10/03 10:44:08;;;;;;;5.70;0.60;;;15.70;99.90;;;;;;5073038;28;20052;-66
2023/10/03 10:46:46;;;;;;;2.05;0.73;;;15.70;99.90;;;;;;5073490;28;20469;-66
2023/10/03 10:49:41;;;;;;;1.65;0.60;;;15.70;99.90;;;;;;5072298;28;20056;-66
2023/10/03 10:52:12;;;;;;;2.28;0.70;;;15.80;99.90;;;;;;5067816;28;20135;-65
2023/10/03 10:54:41;;;;;;;2.88;0.65;;;15.80;99.90;;;;;;5073545;28;20535;-66
2023/10/03 10:57:11;;;;;;;1.80;0.57;;;15.80;99.90;;;;;;5072808;28;20088;-66
2023/10/03 10:59:41;;;;;;;3.13;0.63;;;15.80;99.90;;;;;;5073506;28;20048;-66
2023/10/03 11:02:20;;;;;;;2.03;0.50;;;15.90;99.90;;;;;;5073133;28;20127;-66
2023/10/03 11:04:57;;;;;;;2.28;0.55;;;15.90;99.90;;;;;;5072728;28;20040;-66
2023/10/03 11:07:28;;;;;;;3.83;1.25;;;16.00;99.90;;;;;;5073573;28;20052;-66
2023/10/03 11:09:56;;;;;;;3.65;1.08;;;15.90;99.90;;;;;;5071316;28;20055;-67
2023/10/03 11:12:26;;;;;;;1.83;0.60;;;15.90;99.90;;;;;;5072472;28;20056;-67
2023/10/03 11:14:53;;;;;;;2.80;0.60;;;15.90;99.90;;;;;;5072638;28;20053;-66
2023/10/03 11:17:20;;;;;;;3.25;0.50;;;16.00;99.90;;;;;;5073272;28;20079;-66
2023/10/03 11:19:47;;;;;;;2.22;0.63;;;16.10;99.90;;;;;;5073177;28;20040;-66
2023/10/03 11:22:15;;;;;;;2.53;0.60;;;16.20;99.90;;;;;;5074924;28;20075;-66
2023/10/03 11:24:42;;;;;;;2.75;0.70;;;16.30;99.90;;;;;;5076038;28;20075;-66
2023/10/03 11:27:08;;;;;;;4.85;1.10;;;16.40;99.90;;;;;;5076417;28;20052;-66
2023/10/03 11:29:46;;;;;;;1.90;0.60;;;16.40;99.90;;;;;;5076211;28;20123;-66
2023/10/03 11:32:22;;;;;;;1.70;0.60;;;16.50;99.90;;;;;;5075811;28;20505;-66
2023/10/03 11:34:48;;;;;;;;;;;16.60;99.90;;;;;;5077391;28;20048;-66
2023/10/03 11:37:36;;;;;;;2.80;0.80;;;16.60;99.90;;;;;;5076495;28;20288;-66
2023/10/03 11:40:21;;;;;;;2.65;0.95;;;16.60;99.90;;;;;;5075656;28;20076;-65
2023/10/03 11:43:02;;;;;;;1.52;0.70;;;16.60;99.90;;;;;;5076203;28;20044;-66
2023/10/03 11:45:29;;;;;;;2.75;0.80;;;16.60;99.90;;;;;;5076473;28;20048;-66
2023/10/03 11:48:17;;;;;;;2.60;0.88;;;16.50;99.90;;;;;;5075831;28;20053;-67
2023/10/03 11:50:44;;;;;;;3.47;1.25;;;16.30;99.90;;;;;;5075116;28;20097;-67
2023/10/03 11:53:12;;;;;;;2.83;0.80;;;16.10;99.90;;;;;;5074786;28;20111;-67
2023/10/03 11:55:40;;;;;;;1.95;0.70;;;16.00;99.90;;;;;;5076228;28;20179;-67
2023/10/03 11:58:07;;;;;;;1.83;0.52;;;15.90;99.90;;;;;;5075648;28;20071;-67
2023/10/03 12:00:33;;;;;;;2.33;0.88;;;15.70;99.90;;;;;;5075635;28;20433;-67
2023/10/03 12:02:59;;;;;;;2.67;0.50;;;15.50;99.90;;;;;;5075564;28;20381;-68
2023/10/03 12:05:26;;;;;;;1.80;0.60;;;15.20;99.90;;;;;;5075511;28;20041;-68
2023/10/03 12:07:56;;;;;;;2.50;0.70;;;14.90;99.90;;;;;;5075436;28;20044;-68
2023/10/03 12:10:24;;;;;;;2.65;0.90;;;14.70;99.90;;;;;;5075307;28;20048;-68
2023/10/03 12:12:50;;;;;;;2.75;0.70;;;14.50;99.90;;;;;;5074994;28;20497;-68
2023/10/03 12:15:18;;;;;;;3.15;0.80;;;14.40;99.90;;;;;;5075360;28;20079;-68
2023/10/03 12:17:48;;;;;;;2.70;0.93;;;14.30;99.90;;;;;;5075103;28;20052;-68
2023/10/03 12:20:16;;;;;;;2.30;1.00;;;14.30;99.90;;;;;;5075264;28;20041;-68
2023/10/03 12:22:50;;;;;;;2.67;0.90;;;14.20;99.90;;;;;;5075191;28;20041;-68
2023/10/03 12:25:21;;;;;;;3.63;0.98;;;14.20;99.90;;;;;;5075708;28;20052;-68
2023/10/03 12:27:47;;;;;;;2.05;0.98;;;14.10;99.90;;;;;;5074525;28;20044;-68
2023/10/03 12:30:15;;;;;;;2.97;1.08;;;14.10;99.90;;;;;;5074394;28;20048;-68
2023/10/03 12:32:43;;;;;;;2.88;0.90;;;14.00;99.90;;;;;;5073901;28;20198;-68
2023/10/03 12:35:10;;;;;;;1.77;0.90;;;13.90;99.90;;;;;;5075003;28;20120;-69
2023/10/03 12:37:40;;;;;;;4.60;1.25;;;13.90;99.90;;;;;;5074846;28;20119;-69
2023/10/03 12:40:15;;;;;;;3.45;0.90;;;13.90;99.90;;;;;;5074598;28;20401;-68
2023/10/03 12:42:48;;;;;;;3.13;1.20;;;13.90;99.90;;;;;;5073678;28;20053;-70
2023/10/03 12:45:16;;;;;;;4.45;1.50;;;13.90;99.90;;;;;;5075588;28;20125;-69
2023/10/03 12:47:47;;;;;;;4.78;1.50;;;13.90;99.90;;;;;;5074614;28;20047;-67
2023/10/03 12:50:19;;;;;;;3.83;1.20;;;13.80;99.90;;;;;;5074733;28;20052;-69
2023/10/03 12:52:47;;;;;;;2.78;1.10;;;13.70;99.90;;;;;;5075246;28;20105;-68
2023/10/03 12:55:15;;;;;;;3.35;1.20;;;13.60;99.90;;;;;;5074191;28;20520;-66
2023/10/03 12:57:42;;;;;;;4.75;1.27;;;13.50;99.90;;;;;;5074407;28;20047;-68